sensor_id;sensor_type;location;lat;lon;timestamp;pressure;altitude;pressure_sealevel;temperature;humidity
12793;BME280;6460;42.684;23.260;2022-12-11T00:01:46;92535.75;;;11.32;100.00
12793;BME280;6460;42.684;23.260;2022-12-11T00:04:30;92570.63;;;11.12;100.00
12793;BME280;6460;42.684;23.260;2022-12-11T00:07:06;92566.97;;;10.99;100.00
12793;BME280;6460;42.684;23.260;2022-12-11T00:09:48;92528.44;;;11.09;100.00
12793;BME280;6460;42.684;23.260;2022-12-11T00:12:24;92545.69;;;11.11;100.00
12793;BME280;6460;42.684;23.260;2022-12-11T00:15:15;92559.34;;;11.21;100.00
12793;BME280;6460;42.684;23.260;2022-12-11T00:18:04;92520.84;;;11.27;100.00
12793;BME280;6460;42.684;23.260;2022-12-11T00:21:11;92567.25;;;10.81;100.00
12793;BME280;6460;42.684;23.260;2022-12-11T00:23:54;92533.06;;;10.82;100.00
12793;BME280;6460;42.684;23.260;2022-12-11T00:26:25;92556.34;;;10.92;100.00
12793;BME280;6460;42.684;23.260;2022-12-11T00:28:54;92553.50;;;10.76;100.00
12793;BME280;6460;42.684;23.260;2022-12-11T00:31:25;92531.13;;;11.09;100.00
12793;BME280;6460;42.684;23.260;2022-12-11T00:36:57;92514.97;;;11.36;100.00
12793;BME280;6460;42.684;23.260;2022-12-11T00:39:25;92528.81;;;11.34;100.00
12793;BME280;6460;42.684;23.260;2022-12-11T00:41:54;92511.50;;;11.35;100.00
12793;BME280;6460;42.684;23.260;2022-12-11T00:44:26;92524.19;;;11.35;100.00
12793;BME280;6460;42.684;23.260;2022-12-11T00:46:54;92522.72;;;11.30;100.00
12793;BME280;6460;42.684;23.260;2022-12-11T00:49:21;92515.88;;;11.49;100.00
12793;BME280;6460;42.684;23.260;2022-12-11T00:51:48;92550.59;;;11.17;100.00
12793;BME280;6460;42.684;23.260;2022-12-11T00:54:17;92501.69;;;11.48;100.00
12793;BME280;6460;42.684;23.260;2022-12-11T00:56:44;92526.28;;;11.47;100.00
12793;BME280;6460;42.684;23.260;2022-12-11T00:59:11;92537.22;;;11.36;100.00
12793;BME280;6460;42.684;23.260;2022-12-11T01:01:38;92534.28;;;11.27;100.00
12793;BME280;6460;42.684;23.260;2022-12-11T01:04:05;92504.88;;;11.40;100.00
12793;BME280;6460;42.684;23.260;2022-12-11T01:06:33;92552.34;;;10.77;100.00
12793;BME280;6460;42.684;23.260;2022-12-11T01:09:00;92540.44;;;11.01;100.00
12793;BME280;6460;42.684;23.260;2022-12-11T01:11:45;92534.59;;;11.09;100.00
12793;BME280;6460;42.684;23.260;2022-12-11T01:14:12;92510.31;;;11.36;100.00
12793;BME280;6460;42.684;23.260;2022-12-11T01:16:40;92544.81;;;11.41;100.00
12793;BME280;6460;42.684;23.260;2022-12-11T01:19:07;92542.41;;;11.00;100.00
12793;BME280;6460;42.684;23.260;2022-12-11T01:21:34;92541.59;;;11.27;100.00
12793;BME280;6460;42.684;23.260;2022-12-11T01:24:04;92555.34;;;11.32;100.00
12793;BME280;6460;42.684;23.260;2022-12-11T01:27:02;92526.47;;;11.36;100.00
12793;BME280;6460;42.684;23.260;2022-12-11T01:29:29;92510.91;;;11.47;100.00
12793;BME280;6460;42.684;23.260;2022-12-11T01:31:56;92460.97;;;11.46;100.00
12793;BME280;6460;42.684;23.260;2022-12-11T01:34:24;92501.91;;;11.57;100.00
12793;BME280;6460;42.684;23.260;2022-12-11T01:36:54;92520.78;;;11.54;100.00
12793;BME280;6460;42.684;23.260;2022-12-11T01:39:22;92500.00;;;11.78;100.00
12793;BME280;6460;42.684;23.260;2022-12-11T01:41:49;92528.88;;;12.36;100.00
12793;BME280;6460;42.684;23.260;2022-12-11T01:47:23;92456.72;;;14.02;100.00
12793;BME280;6460;42.684;23.260;2022-12-11T01:49:51;92452.19;;;13.99;100.00
12793;BME280;6460;42.684;23.260;2022-12-11T01:52:20;92501.66;;;13.96;100.00
12793;BME280;6460;42.684;23.260;2022-12-11T01:54:54;92451.75;;;13.88;100.00
12793;BME280;6460;42.684;23.260;2022-12-11T01:57:21;92445.22;;;13.85;100.00
12793;BME280;6460;42.684;23.260;2022-12-11T01:59:49;92468.47;;;13.66;100.00
12793;BME280;6460;42.684;23.260;2022-12-11T02:02:21;92468.97;;;13.77;100.00
12793;BME280;6460;42.684;23.260;2022-12-11T02:04:51;92462.66;;;13.68;100.00
12793;BME280;6460;42.684;23.260;2022-12-11T02:07:19;92459.97;;;13.68;100.00
12793;BME280;6460;42.684;23.260;2022-12-11T02:09:47;92425.31;;;13.66;100.00
12793;BME280;6460;42.684;23.260;2022-12-11T02:12:21;92459.88;;;13.71;100.00
12793;BME280;6460;42.684;23.260;2022-12-11T02:14:55;92422.34;;;13.90;100.00
12793;BME280;6460;42.684;23.260;2022-12-11T02:17:36;92422.69;;;13.92;100.00
12793;BME280;6460;42.684;23.260;2022-12-11T02:20:30;92385.84;;;13.98;100.00
12793;BME280;6460;42.684;23.260;2022-12-11T02:23:48;92431.59;;;14.17;100.00
12793;BME280;6460;42.684;23.260;2022-12-11T02:26:30;92347.34;;;14.10;100.00
12793;BME280;6460;42.684;23.260;2022-12-11T02:29:06;92371.31;;;14.20;100.00
12793;BME280;6460;42.684;23.260;2022-12-11T02:31:37;92369.16;;;14.28;100.00
12793;BME280;6460;42.684;23.260;2022-12-11T02:34:09;92372.94;;;14.18;100.00
12793;BME280;6460;42.684;23.260;2022-12-11T02:36:45;92451.25;;;14.59;100.00
12793;BME280;6460;42.684;23.260;2022-12-11T02:39:16;92398.81;;;14.69;100.00
12793;BME280;6460;42.684;23.260;2022-12-11T02:41:47;92463.25;;;14.71;100.00
12793;BME280;6460;42.684;23.260;2022-12-11T02:44:32;92364.63;;;14.75;100.00
12793;BME280;6460;42.684;23.260;2022-12-11T02:47:02;92387.69;;;14.67;100.00
12793;BME280;6460;42.684;23.260;2022-12-11T02:49:32;92386.81;;;14.70;100.00
12793;BME280;6460;42.684;23.260;2022-12-11T02:55:28;92394.81;;;14.87;100.00
12793;BME280;6460;42.684;23.260;2022-12-11T02:58:01;92390.88;;;14.88;100.00
12793;BME280;6460;42.684;23.260;2022-12-11T03:00:40;92386.53;;;14.90;100.00
12793;BME280;6460;42.684;23.260;2022-12-11T03:03:07;92423.44;;;14.84;100.00
12793;BME280;6460;42.684;23.260;2022-12-11T03:05:34;92348.72;;;14.77;100.00
12793;BME280;6460;42.684;23.260;2022-12-11T03:08:02;92344.44;;;14.67;100.00
12793;BME280;6460;42.684;23.260;2022-12-11T03:10:29;92374.03;;;14.71;100.00
12793;BME280;6460;42.684;23.260;2022-12-11T03:12:57;92356.28;;;14.82;100.00
12793;BME280;6460;42.684;23.260;2022-12-11T03:15:32;92371.47;;;14.67;100.00
12793;BME280;6460;42.684;23.260;2022-12-11T03:18:30;92368.63;;;14.83;100.00
12793;BME280;6460;42.684;23.260;2022-12-11T03:21:03;92373.72;;;14.69;100.00
12793;BME280;6460;42.684;23.260;2022-12-11T03:23:33;92375.25;;;14.70;100.00
12793;BME280;6460;42.684;23.260;2022-12-11T03:26:10;92390.13;;;14.87;100.00
12793;BME280;6460;42.684;23.260;2022-12-11T03:28:41;92353.03;;;14.88;100.00
12793;BME280;6460;42.684;23.260;2022-12-11T03:31:14;92370.78;;;14.89;100.00
12793;BME280;6460;42.684;23.260;2022-12-11T03:33:59;92353.03;;;14.88;100.00
12793;BME280;6460;42.684;23.260;2022-12-11T03:36:32;92378.22;;;14.97;100.00
12793;BME280;6460;42.684;23.260;2022-12-11T03:39:11;92377.44;;;14.97;100.00
12793;BME280;6460;42.684;23.260;2022-12-11T03:41:57;92393.06;;;14.93;100.00
12793;BME280;6460;42.684;23.260;2022-12-11T03:44:48;92395.50;;;15.00;100.00
12793;BME280;6460;42.684;23.260;2022-12-11T03:47:17;92427.00;;;14.94;100.00
12793;BME280;6460;42.684;23.260;2022-12-11T03:49:49;92435.47;;;14.96;100.00
12793;BME280;6460;42.684;23.260;2022-12-11T03:52:19;92437.81;;;15.06;100.00
12793;BME280;6460;42.684;23.260;2022-12-11T03:54:48;92456.13;;;15.02;100.00
12793;BME280;6460;42.684;23.260;2022-12-11T03:57:22;92453.41;;;15.15;100.00
12793;BME280;6460;42.684;23.260;2022-12-11T03:59:52;92449.28;;;15.10;100.00
12793;BME280;6460;42.684;23.260;2022-12-11T04:02:20;92468.66;;;15.09;100.00
12793;BME280;6460;42.684;23.260;2022-12-11T04:04:52;92476.22;;;15.14;100.00
12793;BME280;6460;42.684;23.260;2022-12-11T04:07:33;92491.50;;;15.08;100.00
12793;BME280;6460;42.684;23.260;2022-12-11T04:10:15;92481.09;;;15.06;100.00
12793;BME280;6460;42.684;23.260;2022-12-11T04:12:49;92487.16;;;14.98;100.00
12793;BME280;6460;42.684;23.260;2022-12-11T04:15:23;92484.34;;;14.89;100.00
12793;BME280;6460;42.684;23.260;2022-12-11T04:17:50;92505.66;;;14.87;100.00
12793;BME280;6460;42.684;23.260;2022-12-11T04:20:56;92531.28;;;14.95;100.00
12793;BME280;6460;42.684;23.260;2022-12-11T04:23:41;92515.84;;;15.08;100.00
12793;BME280;6460;42.684;23.260;2022-12-11T04:26:27;92525.47;;;14.83;100.00
12793;BME280;6460;42.684;23.260;2022-12-11T04:28:56;92530.53;;;14.81;100.00
12793;BME280;6460;42.684;23.260;2022-12-11T04:31:38;92543.94;;;14.85;100.00
12793;BME280;6460;42.684;23.260;2022-12-11T04:40:59;92546.66;;;14.98;100.00
12793;BME280;6460;42.684;23.260;2022-12-11T04:43:44;92571.97;;;15.04;100.00
12793;BME280;6460;42.684;23.260;2022-12-11T04:46:32;92604.91;;;15.15;100.00
12793;BME280;6460;42.684;23.260;2022-12-11T04:49:28;92596.66;;;15.06;100.00
12793;BME280;6460;42.684;23.260;2022-12-11T04:52:18;92567.44;;;15.01;100.00
12793;BME280;6460;42.684;23.260;2022-12-11T04:54:50;92557.06;;;14.99;100.00
12793;BME280;6460;42.684;23.260;2022-12-11T04:57:43;92591.59;;;15.20;100.00
12793;BME280;6460;42.684;23.260;2022-12-11T05:26:21;92555.72;;;14.78;100.00
12793;BME280;6460;42.684;23.260;2022-12-11T05:28:50;92547.19;;;14.67;100.00
12793;BME280;6460;42.684;23.260;2022-12-11T05:31:23;92535.91;;;14.69;100.00
12793;BME280;6460;42.684;23.260;2022-12-11T05:37:15;92571.63;;;14.76;100.00
12793;BME280;6460;42.684;23.260;2022-12-11T05:40:30;92544.91;;;14.78;100.00
12793;BME280;6460;42.684;23.260;2022-12-11T05:43:39;92542.53;;;14.80;100.00
12793;BME280;6460;42.684;23.260;2022-12-11T05:46:54;92563.91;;;14.62;100.00
12793;BME280;6460;42.684;23.260;2022-12-11T05:50:25;92534.06;;;14.66;100.00
12793;BME280;6460;42.684;23.260;2022-12-11T05:53:50;92535.69;;;14.63;100.00
12793;BME280;6460;42.684;23.260;2022-12-11T06:13:28;92523.19;;;15.07;100.00
12793;BME280;6460;42.684;23.260;2022-12-11T06:16:00;92527.94;;;15.41;100.00
12793;BME280;6460;42.684;23.260;2022-12-11T06:18:35;92512.88;;;15.40;100.00
12793;BME280;6460;42.684;23.260;2022-12-11T06:21:20;92516.03;;;15.26;100.00
12793;BME280;6460;42.684;23.260;2022-12-11T06:24:00;92550.59;;;15.22;100.00
12793;BME280;6460;42.684;23.260;2022-12-11T06:40:36;92563.34;;;15.34;100.00
12793;BME280;6460;42.684;23.260;2022-12-11T06:43:08;92597.75;;;15.46;100.00
12793;BME280;6460;42.684;23.260;2022-12-11T06:45:47;92545.47;;;15.62;100.00
12793;BME280;6460;42.684;23.260;2022-12-11T06:48:27;92573.41;;;15.33;100.00
12793;BME280;6460;42.684;23.260;2022-12-11T06:51:34;92573.94;;;15.16;100.00
12793;BME280;6460;42.684;23.260;2022-12-11T06:54:06;92599.38;;;15.06;100.00
12793;BME280;6460;42.684;23.260;2022-12-11T06:56:57;92570.47;;;15.03;100.00
12793;BME280;6460;42.684;23.260;2022-12-11T06:59:27;92558.66;;;15.09;100.00
12793;BME280;6460;42.684;23.260;2022-12-11T07:02:02;92582.50;;;15.14;100.00
12793;BME280;6460;42.684;23.260;2022-12-11T07:04:50;92592.56;;;15.14;100.00
12793;BME280;6460;42.684;23.260;2022-12-11T07:07:19;92580.56;;;15.15;100.00
12793;BME280;6460;42.684;23.260;2022-12-11T07:43:50;92629.88;;;15.06;100.00
12793;BME280;6460;42.684;23.260;2022-12-11T07:46:20;92655.09;;;15.16;100.00
12793;BME280;6460;42.684;23.260;2022-12-11T07:48:51;92602.31;;;15.24;100.00
12793;BME280;6460;42.684;23.260;2022-12-11T07:51:38;92605.69;;;15.53;100.00
12793;BME280;6460;42.684;23.260;2022-12-11T07:54:12;92631.69;;;15.63;100.00
12793;BME280;6460;42.684;23.260;2022-12-11T07:57:00;92644.56;;;15.59;100.00
12793;BME280;6460;42.684;23.260;2022-12-11T08:00:02;92652.78;;;15.81;100.00
12793;BME280;6460;42.684;23.260;2022-12-11T08:02:50;92635.75;;;15.93;100.00
12793;BME280;6460;42.684;23.260;2022-12-11T08:05:29;92678.47;;;16.02;100.00
12793;BME280;6460;42.684;23.260;2022-12-11T08:08:01;92670.63;;;15.41;100.00
12793;BME280;6460;42.684;23.260;2022-12-11T08:10:30;92636.97;;;15.54;100.00
12793;BME280;6460;42.684;23.260;2022-12-11T08:12:59;92649.88;;;15.50;100.00
12793;BME280;6460;42.684;23.260;2022-12-11T08:15:29;92664.06;;;15.79;100.00
12793;BME280;6460;42.684;23.260;2022-12-11T08:17:57;92662.31;;;15.60;100.00
12793;BME280;6460;42.684;23.260;2022-12-11T08:20:31;92649.88;;;15.63;100.00
12793;BME280;6460;42.684;23.260;2022-12-11T08:23:08;92647.16;;;16.01;100.00
12793;BME280;6460;42.684;23.260;2022-12-11T08:25:47;92668.72;;;15.92;100.00
12793;BME280;6460;42.684;23.260;2022-12-11T08:28:16;92683.75;;;15.93;100.00
12793;BME280;6460;42.684;23.260;2022-12-11T08:30:48;92664.69;;;15.96;100.00
12793;BME280;6460;42.684;23.260;2022-12-11T08:33:19;92668.28;;;15.68;100.00
12793;BME280;6460;42.684;23.260;2022-12-11T08:35:51;92674.41;;;15.43;100.00
12793;BME280;6460;42.684;23.260;2022-12-11T08:38:20;92678.63;;;15.31;100.00
12793;BME280;6460;42.684;23.260;2022-12-11T08:40:49;92676.25;;;15.33;100.00
12793;BME280;6460;42.684;23.260;2022-12-11T08:43:20;92644.09;;;15.35;100.00
12793;BME280;6460;42.684;23.260;2022-12-11T08:45:52;92676.81;;;15.00;100.00
12793;BME280;6460;42.684;23.260;2022-12-11T08:48:19;92712.56;;;14.78;100.00
12793;BME280;6460;42.684;23.260;2022-12-11T08:50:46;92690.75;;;14.41;100.00
12793;BME280;6460;42.684;23.260;2022-12-11T08:53:37;92678.31;;;14.59;100.00
12793;BME280;6460;42.684;23.260;2022-12-11T08:56:20;92678.00;;;14.25;100.00
12793;BME280;6460;42.684;23.260;2022-12-11T08:59:03;92677.50;;;13.98;100.00
12793;BME280;6460;42.684;23.260;2022-12-11T09:01:34;92668.81;;;14.06;100.00
12793;BME280;6460;42.684;23.260;2022-12-11T09:04:02;92650.66;;;14.23;100.00
12793;BME280;6460;42.684;23.260;2022-12-11T09:06:32;92652.84;;;14.28;100.00
12793;BME280;6460;42.684;23.260;2022-12-11T09:09:21;92650.63;;;14.39;100.00
12793;BME280;6460;42.684;23.260;2022-12-11T09:12:04;92662.94;;;14.56;100.00
12793;BME280;6460;42.684;23.260;2022-12-11T09:14:31;92646.53;;;14.63;100.00
12793;BME280;6460;42.684;23.260;2022-12-11T09:17:00;92662.31;;;14.94;100.00
12793;BME280;6460;42.684;23.260;2022-12-11T09:19:30;92660.81;;;14.93;100.00
12793;BME280;6460;42.684;23.260;2022-12-11T09:21:57;92656.81;;;15.10;100.00
12793;BME280;6460;42.684;23.260;2022-12-11T09:24:24;92662.06;;;15.29;100.00
12793;BME280;6460;42.684;23.260;2022-12-11T09:26:51;92642.59;;;15.47;100.00
12793;BME280;6460;42.684;23.260;2022-12-11T09:29:18;92646.94;;;15.57;100.00
12793;BME280;6460;42.684;23.260;2022-12-11T09:31:48;92639.69;;;15.79;100.00
12793;BME280;6460;42.684;23.260;2022-12-11T09:34:16;92639.38;;;15.52;100.00
12793;BME280;6460;42.684;23.260;2022-12-11T09:36:45;92630.94;;;15.50;100.00
12793;BME280;6460;42.684;23.260;2022-12-11T09:39:16;92641.53;;;15.57;100.00
12793;BME280;6460;42.684;23.260;2022-12-11T09:41:51;92618.16;;;15.76;100.00
12793;BME280;6460;42.684;23.260;2022-12-11T09:44:27;92627.38;;;15.53;100.00
12793;BME280;6460;42.684;23.260;2022-12-11T09:47:14;92624.09;;;15.71;100.00
12793;BME280;6460;42.684;23.260;2022-12-11T09:49:44;92619.16;;;16.16;100.00
12793;BME280;6460;42.684;23.260;2022-12-11T09:52:16;92620.38;;;16.37;100.00
12793;BME280;6460;42.684;23.260;2022-12-11T09:54:59;92629.78;;;16.11;100.00
12793;BME280;6460;42.684;23.260;2022-12-11T09:57:40;92621.50;;;16.27;100.00
12793;BME280;6460;42.684;23.260;2022-12-11T10:00:32;92620.00;;;16.26;100.00
12793;BME280;6460;42.684;23.260;2022-12-11T10:06:07;92613.00;;;16.03;100.00
12793;BME280;6460;42.684;23.260;2022-12-11T10:08:43;92611.72;;;15.95;100.00
12793;BME280;6460;42.684;23.260;2022-12-11T10:11:33;92611.19;;;15.87;100.00
12793;BME280;6460;42.684;23.260;2022-12-11T10:14:11;92616.16;;;15.76;100.00
12793;BME280;6460;42.684;23.260;2022-12-11T10:16:43;92623.13;;;15.65;100.00
12793;BME280;6460;42.684;23.260;2022-12-11T10:19:13;92634.28;;;15.67;100.00
12793;BME280;6460;42.684;23.260;2022-12-11T10:21:44;92618.69;;;15.58;100.00
12793;BME280;6460;42.684;23.260;2022-12-11T10:24:17;92615.94;;;15.33;100.00
12793;BME280;6460;42.684;23.260;2022-12-11T10:26:47;92631.41;;;15.20;100.00
12793;BME280;6460;42.684;23.260;2022-12-11T10:29:20;92634.97;;;15.17;100.00
12793;BME280;6460;42.684;23.260;2022-12-11T10:31:56;92619.47;;;14.92;100.00
12793;BME280;6460;42.684;23.260;2022-12-11T10:34:31;92625.09;;;14.98;100.00
12793;BME280;6460;42.684;23.260;2022-12-11T10:37:01;92610.94;;;15.19;100.00
12793;BME280;6460;42.684;23.260;2022-12-11T10:39:28;92642.22;;;15.07;100.00
12793;BME280;6460;42.684;23.260;2022-12-11T10:41:56;92609.88;;;15.16;100.00
12793;BME280;6460;42.684;23.260;2022-12-11T10:44:24;92608.69;;;15.17;100.00
12793;BME280;6460;42.684;23.260;2022-12-11T10:47:03;92609.59;;;15.52;100.00
12793;BME280;6460;42.684;23.260;2022-12-11T10:49:35;92615.09;;;15.74;100.00
12793;BME280;6460;42.684;23.260;2022-12-11T10:52:11;92600.34;;;15.87;100.00
12793;BME280;6460;42.684;23.260;2022-12-11T10:54:45;92588.88;;;16.52;100.00
12793;BME280;6460;42.684;23.260;2022-12-11T10:57:29;92598.25;;;16.04;100.00
12793;BME280;6460;42.684;23.260;2022-12-11T11:00:24;92586.59;;;16.29;100.00
12793;BME280;6460;42.684;23.260;2022-12-11T11:03:02;92585.16;;;15.90;100.00
12793;BME280;6460;42.684;23.260;2022-12-11T11:05:45;92583.31;;;16.00;100.00
12793;BME280;6460;42.684;23.260;2022-12-11T11:11:31;92589.44;;;15.66;100.00
12793;BME280;6460;42.684;23.260;2022-12-11T11:14:22;92591.28;;;15.31;100.00
12793;BME280;6460;42.684;23.260;2022-12-11T11:16:55;92586.84;;;15.37;100.00
12793;BME280;6460;42.684;23.260;2022-12-11T11:19:26;92573.84;;;15.57;100.00
12793;BME280;6460;42.684;23.260;2022-12-11T11:21:58;92573.41;;;15.46;100.00
12793;BME280;6460;42.684;23.260;2022-12-11T11:24:34;92568.00;;;15.46;100.00
12793;BME280;6460;42.684;23.260;2022-12-11T11:27:11;92567.78;;;15.66;100.00
12793;BME280;6460;42.684;23.260;2022-12-11T11:29:40;92583.28;;;15.65;100.00
12793;BME280;6460;42.684;23.260;2022-12-11T11:32:16;92561.59;;;15.65;100.00
12793;BME280;6460;42.684;23.260;2022-12-11T11:34:44;92569.63;;;15.56;100.00
12793;BME280;6460;42.684;23.260;2022-12-11T11:37:23;92563.56;;;15.52;100.00
12793;BME280;6460;42.684;23.260;2022-12-11T11:39:54;92573.91;;;15.92;100.00
12793;BME280;6460;42.684;23.260;2022-12-11T11:42:37;92571.47;;;15.47;100.00
12793;BME280;6460;42.684;23.260;2022-12-11T11:45:12;92568.22;;;15.99;100.00
12793;BME280;6460;42.684;23.260;2022-12-11T11:47:47;92569.06;;;15.61;100.00
12793;BME280;6460;42.684;23.260;2022-12-11T11:50:19;92560.91;;;15.86;100.00
12793;BME280;6460;42.684;23.260;2022-12-11T11:52:54;92556.00;;;15.60;100.00
12793;BME280;6460;42.684;23.260;2022-12-11T11:55:42;92551.66;;;15.37;100.00
12793;BME280;6460;42.684;23.260;2022-12-11T11:58:26;92549.81;;;15.59;100.00
12793;BME280;6460;42.684;23.260;2022-12-11T12:00:54;92558.25;;;15.49;100.00
12793;BME280;6460;42.684;23.260;2022-12-11T12:03:23;92550.69;;;15.44;100.00
12793;BME280;6460;42.684;23.260;2022-12-11T12:05:54;92541.59;;;15.50;100.00
12793;BME280;6460;42.684;23.260;2022-12-11T12:08:32;92544.81;;;15.58;100.00
12793;BME280;6460;42.684;23.260;2022-12-11T12:11:11;92564.75;;;15.51;100.00
12793;BME280;6460;42.684;23.260;2022-12-11T12:13:46;92551.88;;;15.30;100.00
12793;BME280;6460;42.684;23.260;2022-12-11T12:16:24;92568.31;;;14.98;100.00
12793;BME280;6460;42.684;23.260;2022-12-11T12:19:15;92576.84;;;14.42;100.00
12793;BME280;6460;42.684;23.260;2022-12-11T12:24:32;92586.81;;;12.25;100.00
12793;BME280;6460;42.684;23.260;2022-12-11T12:27:29;92591.47;;;11.31;100.00
12793;BME280;6460;42.684;23.260;2022-12-11T12:33:50;92601.06;;;10.11;100.00
12793;BME280;6460;42.684;23.260;2022-12-11T12:36:26;92603.13;;;9.55;100.00
12793;BME280;6460;42.684;23.260;2022-12-11T12:39:20;92634.41;;;9.25;100.00
12793;BME280;6460;42.684;23.260;2022-12-11T12:42:18;92635.69;;;9.02;100.00
12793;BME280;6460;42.684;23.260;2022-12-11T12:45:27;92634.97;;;8.91;100.00
12793;BME280;6460;42.684;23.260;2022-12-11T12:47:56;92646.28;;;8.51;100.00
12793;BME280;6460;42.684;23.260;2022-12-11T12:50:30;92650.59;;;8.06;100.00
12793;BME280;6460;42.684;23.260;2022-12-11T12:53:17;92662.84;;;7.89;100.00
12793;BME280;6460;42.684;23.260;2022-12-11T12:55:47;92665.53;;;7.86;100.00
12793;BME280;6460;42.684;23.260;2022-12-11T12:58:25;92705.66;;;7.61;100.00
12793;BME280;6460;42.684;23.260;2022-12-11T13:01:07;92690.72;;;7.25;100.00
12793;BME280;6460;42.684;23.260;2022-12-11T13:03:49;92685.78;;;7.23;100.00
12793;BME280;6460;42.684;23.260;2022-12-11T13:06:27;92694.56;;;7.20;100.00
12793;BME280;6460;42.684;23.260;2022-12-11T13:09:11;92712.84;;;7.15;100.00
12793;BME280;6460;42.684;23.260;2022-12-11T13:11:40;92687.25;;;7.00;100.00
12793;BME280;6460;42.684;23.260;2022-12-11T13:14:23;92723.09;;;6.91;100.00
12793;BME280;6460;42.684;23.260;2022-12-11T13:17:05;92715.38;;;6.69;100.00
12793;BME280;6460;42.684;23.260;2022-12-11T13:19:44;92755.31;;;6.51;100.00
12793;BME280;6460;42.684;23.260;2022-12-11T13:22:22;92739.56;;;6.21;100.00
12793;BME280;6460;42.684;23.260;2022-12-11T13:24:57;92749.53;;;6.31;100.00
12793;BME280;6460;42.684;23.260;2022-12-11T13:27:35;92739.13;;;6.19;100.00
12793;BME280;6460;42.684;23.260;2022-12-11T13:30:22;92744.09;;;6.17;100.00
12793;BME280;6460;42.684;23.260;2022-12-11T13:32:57;92763.84;;;6.06;100.00
12793;BME280;6460;42.684;23.260;2022-12-11T13:35:26;92765.28;;;5.96;100.00
12793;BME280;6460;42.684;23.260;2022-12-11T13:38:00;92783.53;;;5.94;100.00
12793;BME280;6460;42.684;23.260;2022-12-11T13:40:35;92787.72;;;5.92;100.00
12793;BME280;6460;42.684;23.260;2022-12-11T13:43:13;92778.44;;;5.78;100.00
12793;BME280;6460;42.684;23.260;2022-12-11T13:45:49;92791.00;;;5.78;100.00
12793;BME280;6460;42.684;23.260;2022-12-11T13:48:20;92792.72;;;5.56;100.00
12793;BME280;6460;42.684;23.260;2022-12-11T13:50:49;92807.56;;;5.57;100.00
12793;BME280;6460;42.684;23.260;2022-12-11T13:53:18;92813.97;;;5.53;100.00
12793;BME280;6460;42.684;23.260;2022-12-11T13:55:53;92821.31;;;5.63;100.00
12793;BME280;6460;42.684;23.260;2022-12-11T13:58:22;92821.56;;;5.47;100.00
12793;BME280;6460;42.684;23.260;2022-12-11T14:00:58;92825.09;;;5.58;100.00
12793;BME280;6460;42.684;23.260;2022-12-11T14:03:29;92844.75;;;5.47;100.00
12793;BME280;6460;42.684;23.260;2022-12-11T14:05:57;92863.00;;;5.45;100.00
12793;BME280;6460;42.684;23.260;2022-12-11T14:08:29;92847.38;;;5.43;100.00
12793;BME280;6460;42.684;23.260;2022-12-11T14:10:57;92856.06;;;5.37;100.00
12793;BME280;6460;42.684;23.260;2022-12-11T14:13:28;92854.22;;;5.41;100.00
12793;BME280;6460;42.684;23.260;2022-12-11T14:15:57;92879.44;;;5.17;100.00
12793;BME280;6460;42.684;23.260;2022-12-11T14:18:27;92874.47;;;5.15;100.00
12793;BME280;6460;42.684;23.260;2022-12-11T14:20:57;92854.41;;;5.25;100.00
12793;BME280;6460;42.684;23.260;2022-12-11T14:23:29;92885.50;;;5.17;100.00
12793;BME280;6460;42.684;23.260;2022-12-11T14:25:58;92901.00;;;5.08;100.00
12793;BME280;6460;42.684;23.260;2022-12-11T14:28:27;92905.78;;;4.96;100.00
12793;BME280;6460;42.684;23.260;2022-12-11T14:30:56;92902.47;;;4.76;100.00
12793;BME280;6460;42.684;23.260;2022-12-11T14:33:26;92901.94;;;4.93;100.00
12793;BME280;6460;42.684;23.260;2022-12-11T14:36:03;92920.41;;;4.82;100.00
12793;BME280;6460;42.684;23.260;2022-12-11T14:38:34;92922.53;;;4.70;100.00
12793;BME280;6460;42.684;23.260;2022-12-11T14:41:11;92932.13;;;4.52;100.00
12793;BME280;6460;42.684;23.260;2022-12-11T14:44:03;92938.44;;;4.66;100.00
12793;BME280;6460;42.684;23.260;2022-12-11T14:46:42;92941.47;;;4.65;100.00
12793;BME280;6460;42.684;23.260;2022-12-11T14:49:37;92955.59;;;4.69;100.00
12793;BME280;6460;42.684;23.260;2022-12-11T14:52:16;92953.31;;;4.71;100.00
12793;BME280;6460;42.684;23.260;2022-12-11T14:54:49;92946.19;;;4.75;100.00
12793;BME280;6460;42.684;23.260;2022-12-11T14:57:20;92939.66;;;4.72;100.00
12793;BME280;6460;42.684;23.260;2022-12-11T14:59:50;92964.81;;;4.75;100.00
12793;BME280;6460;42.684;23.260;2022-12-11T15:02:27;92957.41;;;4.65;100.00
12793;BME280;6460;42.684;23.260;2022-12-11T15:05:18;92956.19;;;4.59;100.00
12793;BME280;6460;42.684;23.260;2022-12-11T15:07:55;92959.00;;;4.43;100.00
12793;BME280;6460;42.684;23.260;2022-12-11T15:10:28;92954.25;;;4.56;100.00
12793;BME280;6460;42.684;23.260;2022-12-11T15:12:57;92970.28;;;4.37;100.00
12793;BME280;6460;42.684;23.260;2022-12-11T15:15:27;92963.66;;;4.50;100.00
12793;BME280;6460;42.684;23.260;2022-12-11T15:18:00;92972.75;;;4.49;100.00
12793;BME280;6460;42.684;23.260;2022-12-11T15:20:29;92961.59;;;4.40;100.00
12793;BME280;6460;42.684;23.260;2022-12-11T15:22:58;92974.50;;;4.18;100.00
12793;BME280;6460;42.684;23.260;2022-12-11T15:25:28;92980.84;;;4.33;100.00
12793;BME280;6460;42.684;23.260;2022-12-11T15:27:58;93011.09;;;4.25;100.00
12793;BME280;6460;42.684;23.260;2022-12-11T15:30:31;92995.91;;;4.25;100.00
12793;BME280;6460;42.684;23.260;2022-12-11T15:33:19;93001.28;;;4.29;100.00
12793;BME280;6460;42.684;23.260;2022-12-11T15:35:53;92995.31;;;4.13;100.00
12793;BME280;6460;42.684;23.260;2022-12-11T15:38:33;92991.72;;;4.47;100.00
12793;BME280;6460;42.684;23.260;2022-12-11T15:41:02;92997.41;;;4.46;100.00
12793;BME280;6460;42.684;23.260;2022-12-11T15:43:35;93008.66;;;4.16;100.00